sensor_id;sensor_type;location;lat;lon;timestamp;P1;durP1;ratioP1;P2;durP2;ratioP2
4508;SDS011;2267;48.816;9.230;2023-02-28T00:01:18;4.13;;;3.80;;
4508;SDS011;2267;48.816;9.230;2023-02-28T00:03:44;4.20;;;3.80;;
4508;SDS011;2267;48.816;9.230;2023-02-28T00:06:11;4.30;;;3.90;;
4508;SDS011;2267;48.816;9.230;2023-02-28T00:08:38;3.77;;;3.43;;
4508;SDS011;2267;48.816;9.230;2023-02-28T00:11:06;4.37;;;4.07;;
4508;SDS011;2267;48.816;9.230;2023-02-28T00:13:39;4.60;;;4.20;;
4508;SDS011;2267;48.816;9.230;2023-02-28T00:16:09;5.00;;;4.33;;
4508;SDS011;2267;48.816;9.230;2023-02-28T00:18:39;5.37;;;4.07;;
4508;SDS011;2267;48.816;9.230;2023-02-28T00:21:07;4.33;;;3.93;;
4508;SDS011;2267;48.816;9.230;2023-02-28T00:23:34;5.07;;;4.67;;
4508;SDS011;2267;48.816;9.230;2023-02-28T00:26:01;4.97;;;4.37;;
4508;SDS011;2267;48.816;9.230;2023-02-28T00:28:28;4.87;;;4.47;;
4508;SDS011;2267;48.816;9.230;2023-02-28T00:30:55;5.00;;;3.73;;
4508;SDS011;2267;48.816;9.230;2023-02-28T00:33:23;3.60;;;3.30;;
4508;SDS011;2267;48.816;9.230;2023-02-28T00:35:50;4.07;;;3.67;;
4508;SDS011;2267;48.816;9.230;2023-02-28T00:38:17;4.10;;;3.70;;
4508;SDS011;2267;48.816;9.230;2023-02-28T00:40:44;4.13;;;3.73;;
4508;SDS011;2267;48.816;9.230;2023-02-28T00:43:10;6.70;;;6.00;;
4508;SDS011;2267;48.816;9.230;2023-02-28T00:45:37;5.23;;;4.73;;
4508;SDS011;2267;48.816;9.230;2023-02-28T00:48:04;5.03;;;4.53;;
4508;SDS011;2267;48.816;9.230;2023-02-28T00:50:32;3.80;;;3.30;;
4508;SDS011;2267;48.816;9.230;2023-02-28T00:52:59;3.47;;;3.17;;
4508;SDS011;2267;48.816;9.230;2023-02-28T00:55:25;3.83;;;3.43;;
4508;SDS011;2267;48.816;9.230;2023-02-28T00:57:52;3.60;;;3.30;;
4508;SDS011;2267;48.816;9.230;2023-02-28T01:00:19;4.70;;;4.30;;
4508;SDS011;2267;48.816;9.230;2023-02-28T01:02:46;5.23;;;4.33;;
4508;SDS011;2267;48.816;9.230;2023-02-28T01:05:13;4.80;;;3.97;;
4508;SDS011;2267;48.816;9.230;2023-02-28T01:07:40;4.93;;;4.30;;
4508;SDS011;2267;48.816;9.230;2023-02-28T01:10:07;6.47;;;5.87;;
4508;SDS011;2267;48.816;9.230;2023-02-28T01:12:34;7.00;;;4.60;;
4508;SDS011;2267;48.816;9.230;2023-02-28T01:15:01;4.60;;;4.23;;
4508;SDS011;2267;48.816;9.230;2023-02-28T01:17:28;5.03;;;4.57;;
4508;SDS011;2267;48.816;9.230;2023-02-28T01:19:55;4.53;;;4.13;;
4508;SDS011;2267;48.816;9.230;2023-02-28T01:22:22;4.57;;;4.10;;
4508;SDS011;2267;48.816;9.230;2023-02-28T01:24:49;4.90;;;4.50;;
4508;SDS011;2267;48.816;9.230;2023-02-28T01:27:15;5.10;;;4.60;;
4508;SDS011;2267;48.816;9.230;2023-02-28T01:29:42;4.30;;;3.90;;
4508;SDS011;2267;48.816;9.230;2023-02-28T01:32:09;4.20;;;3.80;;
4508;SDS011;2267;48.816;9.230;2023-02-28T01:34:36;5.43;;;5.00;;
4508;SDS011;2267;48.816;9.230;2023-02-28T01:37:03;4.47;;;4.07;;
4508;SDS011;2267;48.816;9.230;2023-02-28T01:39:30;5.27;;;4.87;;
4508;SDS011;2267;48.816;9.230;2023-02-28T01:41:57;5.00;;;4.50;;
4508;SDS011;2267;48.816;9.230;2023-02-28T01:47:29;4.20;;;3.73;;
4508;SDS011;2267;48.816;9.230;2023-02-28T01:50:10;4.93;;;4.43;;
4508;SDS011;2267;48.816;9.230;2023-02-28T01:52:48;5.37;;;4.83;;
4508;SDS011;2267;48.816;9.230;2023-02-28T01:55:17;5.00;;;4.50;;
4508;SDS011;2267;48.816;9.230;2023-02-28T01:57:47;5.13;;;4.70;;
4508;SDS011;2267;48.816;9.230;2023-02-28T02:00:18;5.00;;;4.60;;
4508;SDS011;2267;48.816;9.230;2023-02-28T02:02:50;5.17;;;4.77;;
4508;SDS011;2267;48.816;9.230;2023-02-28T02:05:21;5.10;;;4.70;;
4508;SDS011;2267;48.816;9.230;2023-02-28T02:07:51;6.63;;;5.27;;
4508;SDS011;2267;48.816;9.230;2023-02-28T02:10:24;5.60;;;5.00;;
4508;SDS011;2267;48.816;9.230;2023-02-28T02:18:41;5.80;;;5.30;;
4508;SDS011;2267;48.816;9.230;2023-02-28T02:26:55;5.00;;;4.60;;
4508;SDS011;2267;48.816;9.230;2023-02-28T02:30:05;5.70;;;5.10;;
4508;SDS011;2267;48.816;9.230;2023-02-28T02:38:40;5.70;;;5.00;;
4508;SDS011;2267;48.816;9.230;2023-02-28T02:41:24;8.57;;;5.30;;
4508;SDS011;2267;48.816;9.230;2023-02-28T02:44:13;5.20;;;4.70;;
4508;SDS011;2267;48.816;9.230;2023-02-28T02:47:06;5.70;;;5.20;;
4508;SDS011;2267;48.816;9.230;2023-02-28T02:49:36;5.60;;;5.20;;
4508;SDS011;2267;48.816;9.230;2023-02-28T02:52:07;5.13;;;4.73;;
4508;SDS011;2267;48.816;9.230;2023-02-28T02:54:40;5.90;;;5.27;;
4508;SDS011;2267;48.816;9.230;2023-02-28T02:57:11;6.33;;;5.83;;
4508;SDS011;2267;48.816;9.230;2023-02-28T02:59:42;5.40;;;5.00;;
4508;SDS011;2267;48.816;9.230;2023-02-28T03:02:12;5.33;;;4.90;;
4508;SDS011;2267;48.816;9.230;2023-02-28T03:04:45;5.27;;;4.77;;
4508;SDS011;2267;48.816;9.230;2023-02-28T03:07:17;6.23;;;5.60;;
4508;SDS011;2267;48.816;9.230;2023-02-28T03:09:51;5.50;;;4.93;;
4508;SDS011;2267;48.816;9.230;2023-02-28T03:12:19;5.60;;;5.10;;
4508;SDS011;2267;48.816;9.230;2023-02-28T03:15:09;5.83;;;5.23;;
4508;SDS011;2267;48.816;9.230;2023-02-28T03:20:32;5.40;;;5.00;;
4508;SDS011;2267;48.816;9.230;2023-02-28T03:23:17;5.80;;;5.30;;
4508;SDS011;2267;48.816;9.230;2023-02-28T03:26:02;5.60;;;5.10;;
4508;SDS011;2267;48.816;9.230;2023-02-28T03:28:45;4.80;;;4.40;;
4508;SDS011;2267;48.816;9.230;2023-02-28T03:31:43;6.53;;;5.93;;
4508;SDS011;2267;48.816;9.230;2023-02-28T03:34:21;6.50;;;5.77;;
4508;SDS011;2267;48.816;9.230;2023-02-28T03:36:55;5.87;;;5.27;;
4508;SDS011;2267;48.816;9.230;2023-02-28T03:39:34;6.00;;;5.50;;
4508;SDS011;2267;48.816;9.230;2023-02-28T03:42:05;5.60;;;5.10;;
4508;SDS011;2267;48.816;9.230;2023-02-28T03:44:40;5.80;;;5.30;;
4508;SDS011;2267;48.816;9.230;2023-02-28T03:50:37;6.10;;;5.50;;
4508;SDS011;2267;48.816;9.230;2023-02-28T03:52:44;7.23;;;5.40;;
4508;SDS011;2267;48.816;9.230;2023-02-28T03:55:32;5.60;;;5.10;;
4508;SDS011;2267;48.816;9.230;2023-02-28T03:58:43;6.07;;;5.60;;
4508;SDS011;2267;48.816;9.230;2023-02-28T04:04:02;6.00;;;5.50;;
4508;SDS011;2267;48.816;9.230;2023-02-28T04:06:30;5.93;;;5.43;;
4508;SDS011;2267;48.816;9.230;2023-02-28T04:08:58;6.97;;;5.63;;
4508;SDS011;2267;48.816;9.230;2023-02-28T04:11:45;6.73;;;6.20;;
4508;SDS011;2267;48.816;9.230;2023-02-28T04:14:18;6.60;;;6.10;;
4508;SDS011;2267;48.816;9.230;2023-02-28T04:16:45;6.10;;;5.60;;
4508;SDS011;2267;48.816;9.230;2023-02-28T04:19:12;6.30;;;5.80;;
4508;SDS011;2267;48.816;9.230;2023-02-28T04:21:41;6.60;;;5.90;;
4508;SDS011;2267;48.816;9.230;2023-02-28T04:24:17;6.57;;;5.97;;
4508;SDS011;2267;48.816;9.230;2023-02-28T04:26:46;6.80;;;6.10;;
4508;SDS011;2267;48.816;9.230;2023-02-28T04:29:23;6.63;;;6.03;;
4508;SDS011;2267;48.816;9.230;2023-02-28T04:31:52;6.47;;;5.97;;
4508;SDS011;2267;48.816;9.230;2023-02-28T04:34:20;6.70;;;6.20;;
4508;SDS011;2267;48.816;9.230;2023-02-28T04:36:47;6.40;;;5.80;;
4508;SDS011;2267;48.816;9.230;2023-02-28T04:39:38;7.00;;;6.50;;
4508;SDS011;2267;48.816;9.230;2023-02-28T04:42:05;5.70;;;5.30;;
4508;SDS011;2267;48.816;9.230;2023-02-28T04:44:32;6.40;;;5.90;;
4508;SDS011;2267;48.816;9.230;2023-02-28T04:46:58;6.33;;;5.83;;
4508;SDS011;2267;48.816;9.230;2023-02-28T04:49:25;6.37;;;5.87;;
4508;SDS011;2267;48.816;9.230;2023-02-28T04:51:52;6.57;;;6.07;;
4508;SDS011;2267;48.816;9.230;2023-02-28T04:54:19;7.00;;;6.27;;
4508;SDS011;2267;48.816;9.230;2023-02-28T04:56:46;6.57;;;6.07;;
4508;SDS011;2267;48.816;9.230;2023-02-28T04:59:15;7.10;;;6.50;;
4508;SDS011;2267;48.816;9.230;2023-02-28T05:01:45;7.03;;;6.43;;
4508;SDS011;2267;48.816;9.230;2023-02-28T05:04:14;6.90;;;6.30;;
4508;SDS011;2267;48.816;9.230;2023-02-28T05:06:41;6.53;;;6.13;;
4508;SDS011;2267;48.816;9.230;2023-02-28T05:09:08;6.80;;;6.13;;
4508;SDS011;2267;48.816;9.230;2023-02-28T05:11:37;6.07;;;5.57;;
4508;SDS011;2267;48.816;9.230;2023-02-28T05:14:06;6.67;;;6.07;;
4508;SDS011;2267;48.816;9.230;2023-02-28T05:16:37;7.20;;;6.60;;
4508;SDS011;2267;48.816;9.230;2023-02-28T05:19:05;7.77;;;7.07;;
4508;SDS011;2267;48.816;9.230;2023-02-28T05:21:33;6.97;;;6.40;;
4508;SDS011;2267;48.816;9.230;2023-02-28T05:24:09;8.00;;;7.30;;
4508;SDS011;2267;48.816;9.230;2023-02-28T05:26:38;7.73;;;7.13;;
4508;SDS011;2267;48.816;9.230;2023-02-28T05:29:07;7.00;;;6.40;;
4508;SDS011;2267;48.816;9.230;2023-02-28T05:31:34;6.80;;;6.30;;
4508;SDS011;2267;48.816;9.230;2023-02-28T05:34:02;7.53;;;6.87;;
4508;SDS011;2267;48.816;9.230;2023-02-28T05:36:32;8.00;;;7.30;;
4508;SDS011;2267;48.816;9.230;2023-02-28T05:38:59;7.53;;;6.93;;
4508;SDS011;2267;48.816;9.230;2023-02-28T05:41:26;7.80;;;7.10;;
4508;SDS011;2267;48.816;9.230;2023-02-28T05:43:54;8.07;;;7.27;;
4508;SDS011;2267;48.816;9.230;2023-02-28T05:46:21;7.80;;;7.10;;
4508;SDS011;2267;48.816;9.230;2023-02-28T05:48:47;7.57;;;6.67;;
4508;SDS011;2267;48.816;9.230;2023-02-28T05:51:15;7.70;;;7.10;;
4508;SDS011;2267;48.816;9.230;2023-02-28T05:53:42;7.00;;;6.50;;
4508;SDS011;2267;48.816;9.230;2023-02-28T05:56:09;8.33;;;7.53;;
4508;SDS011;2267;48.816;9.230;2023-02-28T05:58:36;8.23;;;7.57;;
4508;SDS011;2267;48.816;9.230;2023-02-28T06:01:19;7.90;;;7.23;;
4508;SDS011;2267;48.816;9.230;2023-02-28T06:03:46;7.83;;;6.97;;
4508;SDS011;2267;48.816;9.230;2023-02-28T06:06:13;8.50;;;7.80;;
4508;SDS011;2267;48.816;9.230;2023-02-28T06:08:40;8.17;;;7.47;;
4508;SDS011;2267;48.816;9.230;2023-02-28T06:11:09;7.57;;;6.97;;
4508;SDS011;2267;48.816;9.230;2023-02-28T06:13:36;7.97;;;7.30;;
4508;SDS011;2267;48.816;9.230;2023-02-28T06:16:02;8.90;;;8.10;;
4508;SDS011;2267;48.816;9.230;2023-02-28T06:18:29;7.63;;;6.90;;
4508;SDS011;2267;48.816;9.230;2023-02-28T06:20:56;8.33;;;7.63;;
4508;SDS011;2267;48.816;9.230;2023-02-28T06:23:23;8.13;;;7.50;;
4508;SDS011;2267;48.816;9.230;2023-02-28T06:25:50;8.67;;;7.87;;
4508;SDS011;2267;48.816;9.230;2023-02-28T06:28:19;8.20;;;7.50;;
4508;SDS011;2267;48.816;9.230;2023-02-28T06:30:45;8.47;;;7.70;;
4508;SDS011;2267;48.816;9.230;2023-02-28T06:33:12;7.70;;;7.10;;
4508;SDS011;2267;48.816;9.230;2023-02-28T06:35:39;8.40;;;7.70;;
4508;SDS011;2267;48.816;9.230;2023-02-28T06:38:06;9.63;;;8.80;;
4508;SDS011;2267;48.816;9.230;2023-02-28T06:40:33;8.37;;;7.60;;
4508;SDS011;2267;48.816;9.230;2023-02-28T06:43:02;8.60;;;7.87;;
4508;SDS011;2267;48.816;9.230;2023-02-28T06:45:29;9.13;;;8.33;;
4508;SDS011;2267;48.816;9.230;2023-02-28T06:47:56;8.60;;;7.83;;
4508;SDS011;2267;48.816;9.230;2023-02-28T06:50:22;10.07;;;9.27;;
4508;SDS011;2267;48.816;9.230;2023-02-28T06:52:49;10.20;;;9.30;;
4508;SDS011;2267;48.816;9.230;2023-02-28T06:55:20;8.80;;;8.00;;
4508;SDS011;2267;48.816;9.230;2023-02-28T06:57:46;8.17;;;7.47;;
4508;SDS011;2267;48.816;9.230;2023-02-28T07:00:14;9.53;;;8.67;;
4508;SDS011;2267;48.816;9.230;2023-02-28T07:02:41;9.60;;;8.80;;
4508;SDS011;2267;48.816;9.230;2023-02-28T07:05:08;9.97;;;9.07;;
4508;SDS011;2267;48.816;9.230;2023-02-28T07:07:34;10.17;;;9.10;;
4508;SDS011;2267;48.816;9.230;2023-02-28T07:10:04;9.67;;;8.87;;
4508;SDS011;2267;48.816;9.230;2023-02-28T07:12:31;10.57;;;9.67;;
4508;SDS011;2267;48.816;9.230;2023-02-28T07:14:58;8.80;;;8.07;;
4508;SDS011;2267;48.816;9.230;2023-02-28T07:17:25;9.00;;;8.30;;
4508;SDS011;2267;48.816;9.230;2023-02-28T07:19:52;9.53;;;8.63;;
4508;SDS011;2267;48.816;9.230;2023-02-28T07:22:18;8.80;;;7.93;;
4508;SDS011;2267;48.816;9.230;2023-02-28T07:24:45;9.43;;;8.70;;
4508;SDS011;2267;48.816;9.230;2023-02-28T07:27:12;9.60;;;8.80;;
4508;SDS011;2267;48.816;9.230;2023-02-28T07:29:49;9.77;;;8.97;;
4508;SDS011;2267;48.816;9.230;2023-02-28T07:32:17;9.73;;;8.93;;
4508;SDS011;2267;48.816;9.230;2023-02-28T07:34:45;9.10;;;8.30;;
4508;SDS011;2267;48.816;9.230;2023-02-28T07:37:12;8.87;;;8.13;;
4508;SDS011;2267;48.816;9.230;2023-02-28T07:39:39;9.13;;;8.40;;
4508;SDS011;2267;48.816;9.230;2023-02-28T07:42:08;9.07;;;8.30;;
4508;SDS011;2267;48.816;9.230;2023-02-28T07:44:40;9.63;;;8.77;;
4508;SDS011;2267;48.816;9.230;2023-02-28T07:47:09;9.37;;;8.67;;
4508;SDS011;2267;48.816;9.230;2023-02-28T07:49:36;9.97;;;9.17;;
4508;SDS011;2267;48.816;9.230;2023-02-28T07:52:07;10.17;;;9.47;;
4508;SDS011;2267;48.816;9.230;2023-02-28T07:54:37;9.27;;;8.43;;
4508;SDS011;2267;48.816;9.230;2023-02-28T07:57:03;9.77;;;9.03;;
4508;SDS011;2267;48.816;9.230;2023-02-28T07:59:30;9.07;;;8.37;;
4508;SDS011;2267;48.816;9.230;2023-02-28T08:01:58;10.27;;;9.37;;
4508;SDS011;2267;48.816;9.230;2023-02-28T08:04:25;11.00;;;10.10;;
4508;SDS011;2267;48.816;9.230;2023-02-28T08:06:52;10.60;;;9.67;;
4508;SDS011;2267;48.816;9.230;2023-02-28T08:09:19;16.03;;;9.57;;
4508;SDS011;2267;48.816;9.230;2023-02-28T08:11:46;10.30;;;9.50;;
4508;SDS011;2267;48.816;9.230;2023-02-28T08:14:13;10.00;;;9.13;;
4508;SDS011;2267;48.816;9.230;2023-02-28T08:16:40;9.37;;;8.57;;
4508;SDS011;2267;48.816;9.230;2023-02-28T08:19:07;9.80;;;9.03;;
4508;SDS011;2267;48.816;9.230;2023-02-28T08:21:33;10.00;;;9.13;;
4508;SDS011;2267;48.816;9.230;2023-02-28T08:24:01;11.00;;;10.10;;
4508;SDS011;2267;48.816;9.230;2023-02-28T08:26:27;11.63;;;10.63;;
4508;SDS011;2267;48.816;9.230;2023-02-28T08:28:54;11.63;;;10.53;;
4508;SDS011;2267;48.816;9.230;2023-02-28T08:31:23;10.63;;;9.73;;
4508;SDS011;2267;48.816;9.230;2023-02-28T08:33:50;11.43;;;10.53;;
4508;SDS011;2267;48.816;9.230;2023-02-28T08:36:19;11.50;;;10.50;;
4508;SDS011;2267;48.816;9.230;2023-02-28T08:38:46;10.50;;;9.70;;
4508;SDS011;2267;48.816;9.230;2023-02-28T08:41:12;11.53;;;10.47;;
4508;SDS011;2267;48.816;9.230;2023-02-28T08:43:39;12.03;;;11.00;;
4508;SDS011;2267;48.816;9.230;2023-02-28T08:46:07;9.93;;;9.13;;
4508;SDS011;2267;48.816;9.230;2023-02-28T08:48:36;10.60;;;9.80;;
4508;SDS011;2267;48.816;9.230;2023-02-28T08:51:08;12.20;;;11.10;;
4508;SDS011;2267;48.816;9.230;2023-02-28T08:53:47;11.27;;;10.23;;
4508;SDS011;2267;48.816;9.230;2023-02-28T08:56:16;10.90;;;10.00;;
4508;SDS011;2267;48.816;9.230;2023-02-28T08:58:44;11.87;;;10.80;;
4508;SDS011;2267;48.816;9.230;2023-02-28T09:01:13;10.83;;;9.77;;
4508;SDS011;2267;48.816;9.230;2023-02-28T09:03:41;11.63;;;10.50;;
4508;SDS011;2267;48.816;9.230;2023-02-28T09:06:08;12.50;;;11.43;;
4508;SDS011;2267;48.816;9.230;2023-02-28T09:08:36;11.97;;;10.87;;
4508;SDS011;2267;48.816;9.230;2023-02-28T09:11:03;9.27;;;8.50;;
4508;SDS011;2267;48.816;9.230;2023-02-28T09:13:31;12.10;;;10.73;;
4508;SDS011;2267;48.816;9.230;2023-02-28T09:15:59;12.07;;;10.93;;
4508;SDS011;2267;48.816;9.230;2023-02-28T09:18:28;12.27;;;11.07;;
4508;SDS011;2267;48.816;9.230;2023-02-28T09:20:55;11.10;;;10.20;;
4508;SDS011;2267;48.816;9.230;2023-02-28T09:23:22;11.10;;;10.10;;
4508;SDS011;2267;48.816;9.230;2023-02-28T09:25:50;12.23;;;11.13;;
4508;SDS011;2267;48.816;9.230;2023-02-28T09:28:19;31.43;;;25.10;;
4508;SDS011;2267;48.816;9.230;2023-02-28T09:30:47;13.70;;;12.50;;
4508;SDS011;2267;48.816;9.230;2023-02-28T09:33:16;11.30;;;10.30;;
4508;SDS011;2267;48.816;9.230;2023-02-28T09:35:45;12.27;;;11.17;;
4508;SDS011;2267;48.816;9.230;2023-02-28T09:38:16;12.47;;;11.27;;
4508;SDS011;2267;48.816;9.230;2023-02-28T09:43:20;12.87;;;11.80;;
4508;SDS011;2267;48.816;9.230;2023-02-28T09:46:02;11.77;;;10.87;;
4508;SDS011;2267;48.816;9.230;2023-02-28T09:48:44;12.20;;;11.00;;
4508;SDS011;2267;48.816;9.230;2023-02-28T09:51:38;12.40;;;11.40;;
4508;SDS011;2267;48.816;9.230;2023-02-28T09:54:01;13.13;;;12.13;;
4508;SDS011;2267;48.816;9.230;2023-02-28T09:56:39;13.20;;;12.10;;
4508;SDS011;2267;48.816;9.230;2023-02-28T09:59:14;12.43;;;11.43;;
4508;SDS011;2267;48.816;9.230;2023-02-28T10:01:50;12.20;;;11.20;;
4508;SDS011;2267;48.816;9.230;2023-02-28T10:07:24;10.97;;;9.97;;
4508;SDS011;2267;48.816;9.230;2023-02-28T10:10:15;12.07;;;10.97;;
4508;SDS011;2267;48.816;9.230;2023-02-28T10:12:51;12.70;;;11.50;;
4508;SDS011;2267;48.816;9.230;2023-02-28T10:15:22;11.90;;;11.00;;
4508;SDS011;2267;48.816;9.230;2023-02-28T10:17:54;11.67;;;10.70;;
4508;SDS011;2267;48.816;9.230;2023-02-28T10:20:35;12.20;;;11.27;;
4508;SDS011;2267;48.816;9.230;2023-02-28T10:25:36;12.27;;;11.27;;
4508;SDS011;2267;48.816;9.230;2023-02-28T10:28:09;12.50;;;11.30;;
4508;SDS011;2267;48.816;9.230;2023-02-28T10:30:36;12.80;;;11.63;;
4508;SDS011;2267;48.816;9.230;2023-02-28T10:33:27;12.57;;;11.47;;
4508;SDS011;2267;48.816;9.230;2023-02-28T10:36:00;12.50;;;11.40;;
4508;SDS011;2267;48.816;9.230;2023-02-28T10:38:32;13.83;;;12.63;;
4508;SDS011;2267;48.816;9.230;2023-02-28T10:43:37;13.03;;;11.83;;
4508;SDS011;2267;48.816;9.230;2023-02-28T10:48:42;13.40;;;12.23;;
4508;SDS011;2267;48.816;9.230;2023-02-28T10:51:12;12.17;;;11.10;;
4508;SDS011;2267;48.816;9.230;2023-02-28T10:56:26;12.73;;;11.63;;
4508;SDS011;2267;48.816;9.230;2023-02-28T11:03:59;11.83;;;10.90;;
4508;SDS011;2267;48.816;9.230;2023-02-28T11:06:28;11.37;;;10.37;;
4508;SDS011;2267;48.816;9.230;2023-02-28T11:09:04;13.20;;;12.00;;
4508;SDS011;2267;48.816;9.230;2023-02-28T11:11:58;12.70;;;11.60;;
4508;SDS011;2267;48.816;9.230;2023-02-28T11:14:27;13.30;;;12.10;;
4508;SDS011;2267;48.816;9.230;2023-02-28T11:16:58;11.97;;;10.97;;
4508;SDS011;2267;48.816;9.230;2023-02-28T11:19:39;12.70;;;11.57;;
4508;SDS011;2267;48.816;9.230;2023-02-28T11:22:16;12.80;;;11.53;;
4508;SDS011;2267;48.816;9.230;2023-02-28T11:24:47;10.80;;;10.00;;
4508;SDS011;2267;48.816;9.230;2023-02-28T11:27:25;11.57;;;10.67;;
4508;SDS011;2267;48.816;9.230;2023-02-28T11:29:52;13.30;;;12.10;;
4508;SDS011;2267;48.816;9.230;2023-02-28T11:32:21;11.30;;;10.40;;
4508;SDS011;2267;48.816;9.230;2023-02-28T12:22:15;12.50;;;11.50;;
4508;SDS011;2267;48.816;9.230;2023-02-28T12:24:47;11.90;;;10.80;;
4508;SDS011;2267;48.816;9.230;2023-02-28T12:27:17;11.87;;;10.93;;
4508;SDS011;2267;48.816;9.230;2023-02-28T12:29:49;10.63;;;9.80;;
4508;SDS011;2267;48.816;9.230;2023-02-28T12:32:36;11.27;;;10.27;;
4508;SDS011;2267;48.816;9.230;2023-02-28T12:40:47;10.20;;;9.40;;
4508;SDS011;2267;48.816;9.230;2023-02-28T12:43:43;9.53;;;8.83;;
4508;SDS011;2267;48.816;9.230;2023-02-28T12:46:21;11.00;;;10.10;;
4508;SDS011;2267;48.816;9.230;2023-02-28T12:48:55;11.87;;;10.97;;
4508;SDS011;2267;48.816;9.230;2023-02-28T12:51:25;10.70;;;9.80;;
4508;SDS011;2267;48.816;9.230;2023-02-28T12:54:11;11.07;;;10.27;;
4508;SDS011;2267;48.816;9.230;2023-02-28T12:59:45;10.90;;;9.93;;
4508;SDS011;2267;48.816;9.230;2023-02-28T13:10:08;11.00;;;10.10;;
4508;SDS011;2267;48.816;9.230;2023-02-28T13:12:36;11.23;;;10.33;;
4508;SDS011;2267;48.816;9.230;2023-02-28T13:15:21;10.97;;;10.10;;
4508;SDS011;2267;48.816;9.230;2023-02-28T13:17:52;11.53;;;10.57;;
4508;SDS011;2267;48.816;9.230;2023-02-28T13:20:25;10.80;;;9.90;;
4508;SDS011;2267;48.816;9.230;2023-02-28T13:23:03;10.77;;;9.87;;
4508;SDS011;2267;48.816;9.230;2023-02-28T13:25:50;10.13;;;9.20;;
4508;SDS011;2267;48.816;9.230;2023-02-28T13:31:14;10.13;;;9.30;;
4508;SDS011;2267;48.816;9.230;2023-02-28T13:36:25;9.73;;;8.90;;
4508;SDS011;2267;48.816;9.230;2023-02-28T13:39:00;10.90;;;10.00;;
4508;SDS011;2267;48.816;9.230;2023-02-28T13:51:49;10.83;;;10.00;;
4508;SDS011;2267;48.816;9.230;2023-02-28T14:05:27;10.83;;;9.93;;
4508;SDS011;2267;48.816;9.230;2023-02-28T14:07:58;12.23;;;10.03;;
4508;SDS011;2267;48.816;9.230;2023-02-28T14:10:31;10.70;;;9.87;;
4508;SDS011;2267;48.816;9.230;2023-02-28T14:13:11;11.33;;;10.43;;
4508;SDS011;2267;48.816;9.230;2023-02-28T14:16:00;10.20;;;9.43;;
4508;SDS011;2267;48.816;9.230;2023-02-28T14:18:36;12.70;;;10.53;;
4508;SDS011;2267;48.816;9.230;2023-02-28T14:37:29;11.07;;;10.20;;
4508;SDS011;2267;48.816;9.230;2023-02-28T14:39:59;10.63;;;9.73;;
4508;SDS011;2267;48.816;9.230;2023-02-28T14:42:29;10.17;;;9.27;;
4508;SDS011;2267;48.816;9.230;2023-02-28T14:45:00;10.57;;;9.63;;
4508;SDS011;2267;48.816;9.230;2023-02-28T14:47:28;12.03;;;11.13;;
4508;SDS011;2267;48.816;9.230;2023-02-28T14:49:58;10.30;;;9.50;;
4508;SDS011;2267;48.816;9.230;2023-02-28T14:52:27;10.57;;;9.73;;
4508;SDS011;2267;48.816;9.230;2023-02-28T14:54:59;10.87;;;9.97;;
4508;SDS011;2267;48.816;9.230;2023-02-28T14:57:30;10.90;;;10.00;;
4508;SDS011;2267;48.816;9.230;2023-02-28T15:00:04;10.50;;;9.70;;
4508;SDS011;2267;48.816;9.230;2023-02-28T15:02:38;11.33;;;10.40;;
4508;SDS011;2267;48.816;9.230;2023-02-28T15:07:38;12.20;;;11.20;;
4508;SDS011;2267;48.816;9.230;2023-02-28T15:10:24;9.73;;;8.87;;
4508;SDS011;2267;48.816;9.230;2023-02-28T15:12:54;10.90;;;10.00;;
4508;SDS011;2267;48.816;9.230;2023-02-28T15:15:24;11.90;;;10.77;;
4508;SDS011;2267;48.816;9.230;2023-02-28T15:21:07;10.60;;;9.77;;
4508;SDS011;2267;48.816;9.230;2023-02-28T15:23:42;12.13;;;11.03;;
4508;SDS011;2267;48.816;9.230;2023-02-28T15:26:13;11.60;;;10.60;;
4508;SDS011;2267;48.816;9.230;2023-02-28T15:28:43;11.13;;;10.30;;
4508;SDS011;2267;48.816;9.230;2023-02-28T15:31:21;10.93;;;10.00;;
4508;SDS011;2267;48.816;9.230;2023-02-28T15:33:53;11.73;;;10.70;;
4508;SDS011;2267;48.816;9.230;2023-02-28T15:36:24;11.07;;;10.03;;
4508;SDS011;2267;48.816;9.230;2023-02-28T15:38:55;11.60;;;10.70;;
4508;SDS011;2267;48.816;9.230;2023-02-28T15:41:36;12.27;;;11.27;;
4508;SDS011;2267;48.816;9.230;2023-02-28T15:44:17;11.60;;;10.60;;
4508;SDS011;2267;48.816;9.230;2023-02-28T15:49:34;11.27;;;10.40;;
4508;SDS011;2267;48.816;9.230;2023-02-28T15:52:30;12.63;;;11.73;;
4508;SDS011;2267;48.816;9.230;2023-02-28T15:55:08;11.23;;;10.30;;
4508;SDS011;2267;48.816;9.230;2023-02-28T15:57:38;11.03;;;10.20;;
4508;SDS011;2267;48.816;9.230;2023-02-28T16:00:09;11.57;;;10.57;;
4508;SDS011;2267;48.816;9.230;2023-02-28T16:02:40;11.63;;;10.60;;
4508;SDS011;2267;48.816;9.230;2023-02-28T16:07:42;11.47;;;10.47;;
4508;SDS011;2267;48.816;9.230;2023-02-28T16:10:10;10.83;;;10.03;;
4508;SDS011;2267;48.816;9.230;2023-02-28T16:12:40;12.17;;;11.23;;
4508;SDS011;2267;48.816;9.230;2023-02-28T16:15:09;11.63;;;10.70;;
4508;SDS011;2267;48.816;9.230;2023-02-28T16:17:47;10.77;;;9.90;;
4508;SDS011;2267;48.816;9.230;2023-02-28T16:20:26;11.73;;;10.83;;
4508;SDS011;2267;48.816;9.230;2023-02-28T16:22:55;10.80;;;9.90;;
4508;SDS011;2267;48.816;9.230;2023-02-28T16:25:23;12.13;;;11.13;;
4508;SDS011;2267;48.816;9.230;2023-02-28T16:27:59;12.03;;;11.03;;
4508;SDS011;2267;48.816;9.230;2023-02-28T16:30:27;12.70;;;11.70;;
4508;SDS011;2267;48.816;9.230;2023-02-28T16:32:57;13.83;;;11.30;;
4508;SDS011;2267;48.816;9.230;2023-02-28T16:35:24;11.57;;;10.60;;
4508;SDS011;2267;48.816;9.230;2023-02-28T16:37:52;10.80;;;9.90;;
4508;SDS011;2267;48.816;9.230;2023-02-28T16:40:23;10.60;;;9.90;;
4508;SDS011;2267;48.816;9.230;2023-02-28T16:42:52;11.03;;;10.13;;
4508;SDS011;2267;48.816;9.230;2023-02-28T16:45:22;12.50;;;11.50;;
4508;SDS011;2267;48.816;9.230;2023-02-28T16:47:51;12.40;;;11.43;;
4508;SDS011;2267;48.816;9.230;2023-02-28T16:50:19;13.47;;;12.27;;
4508;SDS011;2267;48.816;9.230;2023-02-28T16:52:48;11.60;;;10.70;;
4508;SDS011;2267;48.816;9.230;2023-02-28T16:55:18;12.10;;;11.10;;
4508;SDS011;2267;48.816;9.230;2023-02-28T16:57:47;12.37;;;11.37;;
4508;SDS011;2267;48.816;9.230;2023-02-28T17:00:20;13.03;;;11.90;;
4508;SDS011;2267;48.816;9.230;2023-02-28T17:02:48;11.80;;;10.73;;
4508;SDS011;2267;48.816;9.230;2023-02-28T17:05:15;12.10;;;11.00;;
4508;SDS011;2267;48.816;9.230;2023-02-28T17:07:42;13.90;;;12.70;;
4508;SDS011;2267;48.816;9.230;2023-02-28T17:10:22;12.40;;;11.30;;
4508;SDS011;2267;48.816;9.230;2023-02-28T17:12:51;13.10;;;12.00;;
4508;SDS011;2267;48.816;9.230;2023-02-28T17:15:21;13.90;;;12.60;;
4508;SDS011;2267;48.816;9.230;2023-02-28T17:17:48;12.47;;;11.37;;
4508;SDS011;2267;48.816;9.230;2023-02-28T17:20:16;14.07;;;12.90;;
4508;SDS011;2267;48.816;9.230;2023-02-28T17:22:52;14.07;;;12.67;;
4508;SDS011;2267;48.816;9.230;2023-02-28T17:25:20;12.80;;;11.63;;
4508;SDS011;2267;48.816;9.230;2023-02-28T17:27:47;14.00;;;12.80;;
4508;SDS011;2267;48.816;9.230;2023-02-28T17:32:44;14.63;;;13.20;;
4508;SDS011;2267;48.816;9.230;2023-02-28T17:35:12;19.37;;;16.60;;
4508;SDS011;2267;48.816;9.230;2023-02-28T17:37:39;23.90;;;21.30;;
4508;SDS011;2267;48.816;9.230;2023-02-28T17:40:09;21.30;;;19.20;;
4508;SDS011;2267;48.816;9.230;2023-02-28T17:42:40;19.30;;;17.50;;
4508;SDS011;2267;48.816;9.230;2023-02-28T17:45:08;17.03;;;15.53;;
4508;SDS011;2267;48.816;9.230;2023-02-28T17:47:35;15.40;;;14.10;;
4508;SDS011;2267;48.816;9.230;2023-02-28T17:50:02;16.07;;;14.37;;
4508;SDS011;2267;48.816;9.230;2023-02-28T17:52:29;16.60;;;15.30;;
4508;SDS011;2267;48.816;9.230;2023-02-28T17:54:57;16.00;;;14.60;;
4508;SDS011;2267;48.816;9.230;2023-02-28T17:57:24;16.90;;;15.50;;
4508;SDS011;2267;48.816;9.230;2023-02-28T17:59:51;16.07;;;14.67;;
4508;SDS011;2267;48.816;9.230;2023-02-28T18:02:17;15.90;;;14.60;;
4508;SDS011;2267;48.816;9.230;2023-02-28T18:04:44;15.37;;;14.07;;
4508;SDS011;2267;48.816;9.230;2023-02-28T18:07:11;16.53;;;15.20;;
4508;SDS011;2267;48.816;9.230;2023-02-28T18:09:38;16.33;;;14.90;;
4508;SDS011;2267;48.816;9.230;2023-02-28T18:12:05;18.03;;;16.53;;
4508;SDS011;2267;48.816;9.230;2023-02-28T18:14:32;24.17;;;22.07;;
4508;SDS011;2267;48.816;9.230;2023-02-28T18:16:58;28.03;;;25.53;;